SAS4473 ENKR-ENGM
Flight info
| Callsign | SAS4473 |
|---|---|
| Flight time | 1h 57m |
| Altitude | 38000 |
| Route | SIVNU DCT NEKUX DCT REKMI DCT XELVI DCT INREX |
| Aircraft | A320/M-SDE3FGHIJ1RWXYZ/ALB1 |
Departure
| Time | 2026-04-15 13:45 |
|---|---|
| Airport | Kirkenes Airport, Høybuktmoen (ENKR) |
Arrival
| Time | 2026-04-15 15:42 |
|---|---|
| Airport | Oslo-Gardermoen International Airport (ENGM) |
| Time | Latitude | Longitude | Altitude | Speed | Heading |
|---|---|---|---|---|---|
| 2026-04-15 13:19 | 69.72194 | 29.88492 | 295 ft | 0 kts | 248° |
| 2026-04-15 13:37 | 69.72200 | 29.88529 | 299 ft | 4 kts | 248° |
| 2026-04-15 13:37 | 69.72209 | 29.88601 | 300 ft | 4 kts | 249° |
| 2026-04-15 13:37 | 69.72214 | 29.88638 | 300 ft | 0 kts | 249° |
| 2026-04-15 13:40 | 69.72213 | 29.88614 | 294 ft | 3 kts | 262° |
| 2026-04-15 13:40 | 69.72226 | 29.88609 | 297 ft | 3 kts | 4° |
| 2026-04-15 13:40 | 69.72279 | 29.88577 | 294 ft | 8 kts | 339° |
| 2026-04-15 13:40 | 69.72321 | 29.88528 | 296 ft | 11 kts | 338° |
| 2026-04-15 13:41 | 69.72438 | 29.88419 | 296 ft | 16 kts | 2° |
| 2026-04-15 13:41 | 69.72487 | 29.88580 | 293 ft | 19 kts | 69° |
| 2026-04-15 13:41 | 69.72540 | 29.88985 | 298 ft | 22 kts | 68° |
| 2026-04-15 13:41 | 69.72599 | 29.89429 | 298 ft | 25 kts | 69° |
| 2026-04-15 13:42 | 69.72666 | 29.89937 | 296 ft | 29 kts | 69° |
| 2026-04-15 13:42 | 69.72737 | 29.90495 | 299 ft | 30 kts | 69° |
| 2026-04-15 13:42 | 69.72819 | 29.91092 | 295 ft | 33 kts | 68° |
| 2026-04-15 13:42 | 69.72903 | 29.91708 | 297 ft | 30 kts | 68° |
| 2026-04-15 13:43 | 69.72961 | 29.92027 | 297 ft | 5 kts | 77° |
| 2026-04-15 13:43 | 69.72957 | 29.92038 | 299 ft | 0 kts | 129° |
| 2026-04-15 13:43 | 69.72950 | 29.92036 | 299 ft | 2 kts | 178° |
| 2026-04-15 13:43 | 69.72942 | 29.92003 | 301 ft | 3 kts | 244° |
| 2026-04-15 13:44 | 69.72938 | 29.91975 | 301 ft | 0 kts | 246° |
| 2026-04-15 13:44 | 69.72934 | 29.91946 | 299 ft | 15 kts | 246° |
| 2026-04-15 13:44 | 69.72800 | 29.90949 | 295 ft | 88 kts | 249° |
| 2026-04-15 13:44 | 69.72514 | 29.88793 | 299 ft | 141 kts | 249° |
| 2026-04-15 13:45 | 69.72161 | 29.86026 | 767 ft | 144 kts | 248° |
| 2026-04-15 13:45 | 69.71825 | 29.83303 | 1374 ft | 148 kts | 248° |
| 2026-04-15 13:45 | 69.71443 | 29.80269 | 1650 ft | 172 kts | 248° |
| 2026-04-15 13:47 | 69.65248 | 29.53645 | 6565 ft | 255 kts | 233° |
| 2026-04-15 13:47 | 69.64175 | 29.49570 | 7519 ft | 257 kts | 233° |
| 2026-04-15 13:47 | 69.63095 | 29.45443 | 8425 ft | 259 kts | 232° |
| 2026-04-15 13:48 | 69.62008 | 29.41280 | 9319 ft | 262 kts | 232° |
| 2026-04-15 13:48 | 69.60908 | 29.37063 | 10189 ft | 266 kts | 232° |
| 2026-04-15 13:48 | 69.59784 | 29.32760 | 10779 ft | 278 kts | 232° |
| 2026-04-15 13:48 | 69.58578 | 29.28149 | 11046 ft | 299 kts | 232° |
| 2026-04-15 13:49 | 69.57248 | 29.23437 | 11623 ft | 307 kts | 225° |
| 2026-04-15 13:49 | 69.55658 | 29.19313 | 12358 ft | 310 kts | 221° |
| 2026-04-15 13:49 | 69.54027 | 29.15235 | 13121 ft | 313 kts | 221° |
| 2026-04-15 13:49 | 69.52384 | 29.11126 | 13882 ft | 316 kts | 221° |
| 2026-04-15 13:50 | 69.50746 | 29.07032 | 14571 ft | 318 kts | 221° |
| 2026-04-15 13:50 | 69.49073 | 29.02862 | 15230 ft | 321 kts | 220° |
| 2026-04-15 13:50 | 69.47387 | 28.98667 | 15928 ft | 322 kts | 220° |
| 2026-04-15 13:50 | 69.45697 | 28.94462 | 16607 ft | 323 kts | 220° |
| 2026-04-15 13:51 | 69.44002 | 28.90252 | 17296 ft | 324 kts | 219° |
| 2026-04-15 13:51 | 69.42296 | 28.86038 | 18002 ft | 325 kts | 219° |
| 2026-04-15 13:51 | 69.40580 | 28.81816 | 18718 ft | 327 kts | 219° |
| 2026-04-15 13:51 | 69.38855 | 28.77586 | 19325 ft | 328 kts | 219° |
| 2026-04-15 13:52 | 69.37121 | 28.73334 | 19931 ft | 330 kts | 219° |
| 2026-04-15 13:52 | 69.35380 | 28.69062 | 20549 ft | 332 kts | 218° |
| 2026-04-15 13:52 | 69.33621 | 28.64776 | 21146 ft | 334 kts | 218° |
| 2026-04-15 13:52 | 69.31852 | 28.60471 | 21740 ft | 337 kts | 218° |
| 2026-04-15 13:53 | 69.30070 | 28.56147 | 22320 ft | 339 kts | 218° |
| 2026-04-15 13:53 | 69.28275 | 28.51800 | 22891 ft | 341 kts | 218° |
| 2026-04-15 13:53 | 69.26467 | 28.47429 | 23466 ft | 343 kts | 218° |
| 2026-04-15 13:53 | 69.24649 | 28.43040 | 24019 ft | 345 kts | 218° |
| 2026-04-15 13:54 | 69.22821 | 28.38628 | 24493 ft | 347 kts | 218° |
| 2026-04-15 13:54 | 69.20987 | 28.34209 | 25008 ft | 347 kts | 218° |
| 2026-04-15 13:54 | 69.19150 | 28.29793 | 25490 ft | 348 kts | 218° |
| 2026-04-15 13:54 | 69.17306 | 28.25369 | 25955 ft | 349 kts | 218° |
| 2026-04-15 13:55 | 69.15454 | 28.20939 | 26486 ft | 350 kts | 217° |
| 2026-04-15 13:55 | 69.13602 | 28.16527 | 27022 ft | 349 kts | 218° |
| 2026-04-15 13:55 | 69.11750 | 28.12125 | 27482 ft | 349 kts | 218° |
| 2026-04-15 13:55 | 69.09893 | 28.07715 | 27923 ft | 350 kts | 217° |
| 2026-04-15 13:56 | 69.08029 | 28.03306 | 28338 ft | 352 kts | 217° |
| 2026-04-15 13:56 | 69.06151 | 27.98878 | 28755 ft | 354 kts | 217° |
| 2026-04-15 13:56 | 69.04266 | 27.94448 | 29162 ft | 355 kts | 217° |
| 2026-04-15 13:56 | 69.02366 | 27.90002 | 29569 ft | 357 kts | 217° |
| 2026-04-15 13:57 | 69.00459 | 27.85548 | 29964 ft | 359 kts | 217° |
| 2026-04-15 13:57 | 68.98541 | 27.81069 | 30372 ft | 360 kts | 217° |
| 2026-04-15 13:57 | 68.96632 | 27.76512 | 30676 ft | 363 kts | 219° |
| 2026-04-15 13:57 | 68.94774 | 27.71680 | 30918 ft | 368 kts | 221° |
| 2026-04-15 13:58 | 68.92940 | 27.66649 | 31147 ft | 372 kts | 222° |
| 2026-04-15 13:58 | 68.91129 | 27.61586 | 31363 ft | 377 kts | 222° |
| 2026-04-15 13:58 | 68.89275 | 27.56417 | 31645 ft | 379 kts | 223° |
| 2026-04-15 13:58 | 68.87401 | 27.51243 | 31964 ft | 381 kts | 222° |
| 2026-04-15 13:59 | 68.85505 | 27.46079 | 32257 ft | 384 kts | 222° |
| 2026-04-15 13:59 | 68.83585 | 27.40911 | 32555 ft | 386 kts | 222° |
| 2026-04-15 13:59 | 68.81645 | 27.35742 | 32854 ft | 389 kts | 222° |
| 2026-04-15 13:59 | 68.79691 | 27.30549 | 33155 ft | 391 kts | 222° |
| 2026-04-15 14:00 | 68.77722 | 27.25323 | 33451 ft | 394 kts | 223° |
| 2026-04-15 14:00 | 68.75739 | 27.20070 | 33753 ft | 397 kts | 223° |
| 2026-04-15 14:00 | 68.73742 | 27.14787 | 34056 ft | 399 kts | 223° |
| 2026-04-15 14:00 | 68.71732 | 27.09488 | 34346 ft | 402 kts | 223° |
| 2026-04-15 14:01 | 68.67655 | 26.98773 | 34777 ft | 408 kts | 223° |
| 2026-04-15 14:01 | 68.65599 | 26.93388 | 35063 ft | 409 kts | 223° |
| 2026-04-15 14:01 | 68.63541 | 26.88007 | 35346 ft | 409 kts | 223° |
| 2026-04-15 14:02 | 68.61476 | 26.82613 | 35626 ft | 410 kts | 223° |
| 2026-04-15 14:02 | 68.59407 | 26.77235 | 35900 ft | 411 kts | 223° |
| 2026-04-15 14:02 | 68.57331 | 26.71864 | 36172 ft | 411 kts | 223° |
| 2026-04-15 14:02 | 68.55249 | 26.66503 | 36443 ft | 412 kts | 223° |
| 2026-04-15 14:03 | 68.53163 | 26.61136 | 36715 ft | 412 kts | 223° |
| 2026-04-15 14:03 | 68.51075 | 26.55767 | 36964 ft | 413 kts | 223° |
| 2026-04-15 14:03 | 68.48983 | 26.50400 | 37210 ft | 413 kts | 223° |
| 2026-04-15 14:03 | 68.46886 | 26.45037 | 37459 ft | 414 kts | 223° |
| 2026-04-15 14:04 | 68.44785 | 26.39683 | 37668 ft | 415 kts | 223° |
| 2026-04-15 14:04 | 68.42676 | 26.34324 | 37897 ft | 415 kts | 223° |
| 2026-04-15 14:04 | 68.40562 | 26.28962 | 38126 ft | 416 kts | 223° |
| 2026-04-15 14:04 | 68.38445 | 26.23602 | 38313 ft | 417 kts | 223° |
| 2026-04-15 14:05 | 68.36316 | 26.18231 | 38364 ft | 419 kts | 223° |
| 2026-04-15 14:05 | 68.32028 | 26.07471 | 38362 ft | 421 kts | 223° |
| 2026-04-15 14:06 | 68.27734 | 25.96732 | 38361 ft | 421 kts | 223° |
| 2026-04-15 14:06 | 68.23461 | 25.86101 | 38363 ft | 421 kts | 223° |
| 2026-04-15 14:07 | 68.19145 | 25.75448 | 38348 ft | 421 kts | 223° |
| 2026-04-15 14:07 | 68.14814 | 25.64817 | 38353 ft | 422 kts | 223° |
| 2026-04-15 14:08 | 68.10470 | 25.54191 | 38374 ft | 423 kts | 223° |
| 2026-04-15 14:08 | 68.06116 | 25.43566 | 38361 ft | 424 kts | 223° |
| 2026-04-15 14:09 | 68.01739 | 25.32975 | 38360 ft | 425 kts | 223° |
| 2026-04-15 14:09 | 67.97348 | 25.22404 | 38355 ft | 425 kts | 223° |
| 2026-04-15 14:10 | 67.92943 | 25.11848 | 38336 ft | 426 kts | 223° |
| 2026-04-15 14:10 | 67.88524 | 25.01337 | 38339 ft | 427 kts | 223° |
| 2026-04-15 14:11 | 67.84125 | 24.90920 | 38343 ft | 427 kts | 222° |
| 2026-04-15 14:11 | 67.79681 | 24.80462 | 38345 ft | 428 kts | 222° |
| 2026-04-15 14:12 | 67.75229 | 24.70025 | 38347 ft | 428 kts | 222° |
| 2026-04-15 14:12 | 67.70770 | 24.59624 | 38351 ft | 428 kts | 222° |
| 2026-04-15 14:13 | 67.66300 | 24.49262 | 38345 ft | 428 kts | 222° |
| 2026-04-15 14:13 | 67.61822 | 24.38928 | 38350 ft | 429 kts | 222° |
| 2026-04-15 14:14 | 67.57339 | 24.28631 | 38354 ft | 429 kts | 222° |
| 2026-04-15 14:14 | 67.52839 | 24.18371 | 38354 ft | 429 kts | 222° |
| 2026-04-15 14:15 | 67.48335 | 24.08158 | 38351 ft | 429 kts | 221° |
| 2026-04-15 14:15 | 67.43826 | 23.97971 | 38358 ft | 429 kts | 221° |
| 2026-04-15 14:16 | 67.39316 | 23.87822 | 38346 ft | 429 kts | 221° |
| 2026-04-15 14:16 | 67.34818 | 23.77765 | 38351 ft | 429 kts | 221° |
| 2026-04-15 14:17 | 67.30286 | 23.67698 | 38351 ft | 429 kts | 221° |
| 2026-04-15 14:17 | 67.25746 | 23.57663 | 38340 ft | 429 kts | 221° |
| 2026-04-15 14:18 | 67.21201 | 23.47661 | 38345 ft | 429 kts | 221° |
| 2026-04-15 14:18 | 67.16659 | 23.37686 | 38343 ft | 429 kts | 221° |
| 2026-04-15 14:19 | 67.12103 | 23.27753 | 38333 ft | 429 kts | 221° |
| 2026-04-15 14:19 | 67.07541 | 23.17877 | 38343 ft | 429 kts | 221° |
| 2026-04-15 14:20 | 67.02962 | 23.08022 | 38348 ft | 430 kts | 221° |
| 2026-04-15 14:20 | 66.98382 | 22.98189 | 38347 ft | 430 kts | 221° |
| 2026-04-15 14:21 | 66.93794 | 22.88372 | 38351 ft | 431 kts | 221° |
| 2026-04-15 14:21 | 66.89191 | 22.78593 | 38344 ft | 431 kts | 221° |
| 2026-04-15 14:22 | 66.84578 | 22.68864 | 38342 ft | 431 kts | 220° |
| 2026-04-15 14:22 | 66.79985 | 22.59208 | 38342 ft | 432 kts | 220° |
| 2026-04-15 14:23 | 66.75354 | 22.49506 | 38344 ft | 432 kts | 220° |
| 2026-04-15 14:23 | 66.70711 | 22.39842 | 38365 ft | 432 kts | 220° |
| 2026-04-15 14:24 | 66.66054 | 22.30220 | 38367 ft | 433 kts | 220° |
| 2026-04-15 14:24 | 66.61395 | 22.20618 | 38353 ft | 433 kts | 220° |
| 2026-04-15 14:25 | 66.56733 | 22.11035 | 38362 ft | 433 kts | 220° |
| 2026-04-15 14:25 | 66.52053 | 22.01493 | 38362 ft | 433 kts | 220° |
| 2026-04-15 14:26 | 66.47363 | 21.91995 | 38360 ft | 434 kts | 220° |
| 2026-04-15 14:26 | 66.42668 | 21.82518 | 38359 ft | 433 kts | 220° |
| 2026-04-15 14:27 | 66.37976 | 21.73071 | 38344 ft | 433 kts | 220° |
| 2026-04-15 14:27 | 66.33309 | 21.63724 | 38357 ft | 433 kts | 220° |
| 2026-04-15 14:28 | 66.28602 | 21.54363 | 38345 ft | 433 kts | 219° |
| 2026-04-15 14:28 | 66.23892 | 21.45022 | 38356 ft | 433 kts | 219° |
| 2026-04-15 14:29 | 66.19182 | 21.35726 | 38359 ft | 433 kts | 219° |
| 2026-04-15 14:29 | 66.14456 | 21.26475 | 38359 ft | 433 kts | 219° |
| 2026-04-15 14:30 | 66.09731 | 21.17258 | 38359 ft | 433 kts | 219° |
| 2026-04-15 14:30 | 66.04996 | 21.08056 | 38348 ft | 434 kts | 219° |
| 2026-04-15 14:31 | 66.00246 | 20.98874 | 38341 ft | 434 kts | 219° |
| 2026-04-15 14:31 | 65.96285 | 20.91272 | 38357 ft | 435 kts | 219° |
| 2026-04-15 14:32 | 65.91518 | 20.82155 | 38357 ft | 435 kts | 219° |
| 2026-04-15 14:32 | 65.86746 | 20.73051 | 38359 ft | 435 kts | 219° |
| 2026-04-15 14:33 | 65.81966 | 20.63969 | 38349 ft | 435 kts | 219° |
| 2026-04-15 14:33 | 65.77173 | 20.54937 | 38358 ft | 436 kts | 219° |
| 2026-04-15 14:34 | 65.72371 | 20.45927 | 38357 ft | 436 kts | 219° |
| 2026-04-15 14:34 | 65.67570 | 20.36931 | 38359 ft | 436 kts | 219° |
| 2026-04-15 14:35 | 65.62786 | 20.28021 | 38362 ft | 436 kts | 219° |
| 2026-04-15 14:35 | 65.57970 | 20.19092 | 38363 ft | 436 kts | 219° |
| 2026-04-15 14:36 | 65.53141 | 20.10207 | 38354 ft | 436 kts | 219° |
| 2026-04-15 14:36 | 65.48436 | 20.00980 | 38358 ft | 436 kts | 223° |
| 2026-04-15 14:37 | 65.43968 | 19.91121 | 38366 ft | 436 kts | 224° |
| 2026-04-15 14:37 | 65.39544 | 19.81185 | 38367 ft | 436 kts | 224° |
| 2026-04-15 14:38 | 65.35097 | 19.71317 | 38368 ft | 436 kts | 224° |
| 2026-04-15 14:38 | 65.30627 | 19.61526 | 38371 ft | 436 kts | 224° |
| 2026-04-15 14:39 | 65.26149 | 19.51755 | 38360 ft | 436 kts | 224° |
| 2026-04-15 14:39 | 65.21695 | 19.42086 | 38369 ft | 436 kts | 223° |
| 2026-04-15 14:40 | 65.17195 | 19.32396 | 38366 ft | 436 kts | 224° |
| 2026-04-15 14:40 | 65.12691 | 19.22714 | 38366 ft | 437 kts | 224° |
| 2026-04-15 14:41 | 65.08179 | 19.13041 | 38370 ft | 437 kts | 224° |
| 2026-04-15 14:41 | 65.03650 | 19.03407 | 38366 ft | 438 kts | 224° |
| 2026-04-15 14:42 | 64.99109 | 18.93807 | 38368 ft | 438 kts | 224° |
| 2026-04-15 14:42 | 64.94566 | 18.84216 | 38378 ft | 438 kts | 223° |
| 2026-04-15 14:43 | 64.90017 | 18.74659 | 38376 ft | 438 kts | 223° |
| 2026-04-15 14:43 | 64.85454 | 18.65130 | 38378 ft | 438 kts | 223° |
| 2026-04-15 14:44 | 64.80884 | 18.55638 | 38378 ft | 439 kts | 223° |
| 2026-04-15 14:44 | 64.76307 | 18.46180 | 38374 ft | 439 kts | 223° |
| 2026-04-15 14:45 | 64.71751 | 18.36788 | 38370 ft | 439 kts | 223° |
| 2026-04-15 14:45 | 64.67159 | 18.27371 | 38371 ft | 439 kts | 223° |
| 2026-04-15 14:46 | 64.62555 | 18.17981 | 38375 ft | 439 kts | 223° |
| 2026-04-15 14:46 | 64.57946 | 18.08620 | 38375 ft | 440 kts | 223° |
| 2026-04-15 14:47 | 64.53332 | 17.99287 | 38375 ft | 439 kts | 223° |
| 2026-04-15 14:47 | 64.48718 | 17.89991 | 38361 ft | 439 kts | 223° |
| 2026-04-15 14:48 | 64.44089 | 17.80718 | 38366 ft | 440 kts | 223° |
| 2026-04-15 14:48 | 64.39447 | 17.71471 | 38366 ft | 441 kts | 223° |
| 2026-04-15 14:49 | 64.34794 | 17.62239 | 38369 ft | 441 kts | 222° |
| 2026-04-15 14:49 | 64.30132 | 17.53031 | 38368 ft | 441 kts | 222° |
| 2026-04-15 14:50 | 64.25463 | 17.43859 | 38364 ft | 441 kts | 222° |
| 2026-04-15 14:50 | 64.20791 | 17.34710 | 38365 ft | 441 kts | 222° |
| 2026-04-15 14:51 | 64.16144 | 17.25649 | 38364 ft | 441 kts | 222° |
| 2026-04-15 14:51 | 64.11455 | 17.16554 | 38365 ft | 442 kts | 222° |
| 2026-04-15 14:52 | 64.06761 | 17.07497 | 38357 ft | 442 kts | 222° |
| 2026-04-15 14:52 | 64.02056 | 16.98471 | 38358 ft | 442 kts | 222° |
| 2026-04-15 14:53 | 63.97353 | 16.89456 | 38346 ft | 442 kts | 221° |
| 2026-04-15 14:53 | 63.92639 | 16.80479 | 38352 ft | 442 kts | 221° |
| 2026-04-15 14:54 | 63.87916 | 16.71537 | 38350 ft | 442 kts | 221° |
| 2026-04-15 14:54 | 63.83180 | 16.62631 | 38352 ft | 442 kts | 221° |
| 2026-04-15 14:55 | 63.78445 | 16.53733 | 38354 ft | 442 kts | 221° |
| 2026-04-15 14:55 | 63.73708 | 16.44860 | 38353 ft | 442 kts | 221° |
| 2026-04-15 14:56 | 63.68964 | 16.36023 | 38353 ft | 442 kts | 221° |
| 2026-04-15 14:56 | 63.64210 | 16.27215 | 38350 ft | 442 kts | 221° |
| 2026-04-15 14:57 | 63.59451 | 16.18436 | 38345 ft | 442 kts | 221° |
| 2026-04-15 14:57 | 63.54693 | 16.09671 | 38345 ft | 443 kts | 221° |
| 2026-04-15 14:58 | 63.49921 | 16.00945 | 38345 ft | 443 kts | 221° |
| 2026-04-15 14:58 | 63.45175 | 15.92315 | 38338 ft | 443 kts | 221° |
| 2026-04-15 14:59 | 63.40391 | 15.83655 | 38338 ft | 443 kts | 221° |
| 2026-04-15 14:59 | 63.35602 | 15.75003 | 38339 ft | 443 kts | 221° |
| 2026-04-15 15:00 | 63.30807 | 15.66379 | 38333 ft | 443 kts | 221° |
| 2026-04-15 15:00 | 63.26003 | 15.57790 | 38337 ft | 443 kts | 221° |
| 2026-04-15 15:01 | 63.21193 | 15.49225 | 38337 ft | 443 kts | 221° |
| 2026-04-15 15:01 | 63.16372 | 15.40688 | 38327 ft | 443 kts | 220° |
| 2026-04-15 15:02 | 63.11554 | 15.32180 | 38329 ft | 444 kts | 220° |
| 2026-04-15 15:02 | 63.06725 | 15.23688 | 38332 ft | 444 kts | 220° |
| 2026-04-15 15:03 | 63.01882 | 15.15233 | 38321 ft | 444 kts | 220° |
| 2026-04-15 15:03 | 62.97045 | 15.06810 | 38324 ft | 444 kts | 220° |
| 2026-04-15 15:04 | 62.93022 | 14.99816 | 38321 ft | 443 kts | 220° |
| 2026-04-15 15:04 | 62.89598 | 14.93896 | 38319 ft | 444 kts | 220° |
| 2026-04-15 15:05 | 62.84746 | 14.85538 | 38317 ft | 444 kts | 220° |
| 2026-04-15 15:05 | 62.79890 | 14.77195 | 38316 ft | 444 kts | 220° |
| 2026-04-15 15:06 | 62.72584 | 14.64738 | 38320 ft | 444 kts | 220° |
| 2026-04-15 15:06 | 62.67709 | 14.56472 | 38314 ft | 444 kts | 220° |
| 2026-04-15 15:07 | 62.62831 | 14.48230 | 38309 ft | 444 kts | 220° |
| 2026-04-15 15:07 | 62.57949 | 14.39993 | 38308 ft | 445 kts | 220° |
| 2026-04-15 15:08 | 62.53054 | 14.31782 | 38310 ft | 445 kts | 219° |
| 2026-04-15 15:08 | 62.48148 | 14.23611 | 38312 ft | 445 kts | 219° |
| 2026-04-15 15:09 | 62.43270 | 14.15515 | 38306 ft | 445 kts | 219° |
| 2026-04-15 15:09 | 62.38355 | 14.07388 | 38301 ft | 445 kts | 219° |
| 2026-04-15 15:10 | 62.33437 | 13.99275 | 38303 ft | 446 kts | 219° |
| 2026-04-15 15:10 | 62.28509 | 13.91186 | 38300 ft | 446 kts | 219° |
| 2026-04-15 15:11 | 62.23571 | 13.83130 | 38302 ft | 446 kts | 219° |
| 2026-04-15 15:11 | 62.18630 | 13.75088 | 38305 ft | 446 kts | 219° |
| 2026-04-15 15:12 | 62.13684 | 13.67079 | 38299 ft | 446 kts | 219° |
| 2026-04-15 15:12 | 62.08726 | 13.59096 | 38298 ft | 447 kts | 219° |
| 2026-04-15 15:13 | 62.03761 | 13.51114 | 38300 ft | 447 kts | 219° |
| 2026-04-15 15:13 | 61.98793 | 13.43150 | 38301 ft | 447 kts | 219° |
| 2026-04-15 15:14 | 61.93816 | 13.35220 | 38300 ft | 447 kts | 219° |
| 2026-04-15 15:14 | 61.88826 | 13.27320 | 38302 ft | 447 kts | 219° |
| 2026-04-15 15:15 | 61.83869 | 13.19491 | 38295 ft | 448 kts | 218° |
| 2026-04-15 15:15 | 61.78870 | 13.11624 | 38296 ft | 448 kts | 218° |
| 2026-04-15 15:16 | 61.73864 | 13.03780 | 38293 ft | 448 kts | 218° |
| 2026-04-15 15:16 | 61.68849 | 12.95957 | 38218 ft | 448 kts | 218° |
| 2026-04-15 15:17 | 61.66352 | 12.92073 | 37938 ft | 445 kts | 218° |
| 2026-04-15 15:17 | 61.63862 | 12.88211 | 37671 ft | 444 kts | 218° |
| 2026-04-15 15:17 | 61.61381 | 12.84368 | 37396 ft | 443 kts | 219° |
| 2026-04-15 15:17 | 61.58894 | 12.80522 | 37139 ft | 444 kts | 218° |
| 2026-04-15 15:18 | 61.56404 | 12.76679 | 36871 ft | 444 kts | 218° |
| 2026-04-15 15:18 | 61.53915 | 12.72848 | 36613 ft | 444 kts | 218° |
| 2026-04-15 15:18 | 61.51425 | 12.69035 | 36286 ft | 444 kts | 217° |
| 2026-04-15 15:18 | 61.48788 | 12.65650 | 35732 ft | 445 kts | 211° |
| 2026-04-15 15:19 | 61.46055 | 12.62598 | 35153 ft | 446 kts | 209° |
| 2026-04-15 15:19 | 61.43279 | 12.59704 | 34586 ft | 446 kts | 208° |
| 2026-04-15 15:19 | 61.40480 | 12.56898 | 33967 ft | 446 kts | 207° |
| 2026-04-15 15:19 | 61.37678 | 12.54117 | 33302 ft | 446 kts | 207° |
| 2026-04-15 15:20 | 61.34890 | 12.51329 | 32730 ft | 443 kts | 207° |
| 2026-04-15 15:20 | 61.32137 | 12.48539 | 32233 ft | 438 kts | 208° |
| 2026-04-15 15:20 | 61.29417 | 12.45750 | 31765 ft | 433 kts | 208° |
| 2026-04-15 15:20 | 61.26733 | 12.42984 | 31315 ft | 428 kts | 209° |
| 2026-04-15 15:21 | 61.24087 | 12.40252 | 30872 ft | 422 kts | 208° |
| 2026-04-15 15:21 | 61.21468 | 12.37558 | 30446 ft | 417 kts | 208° |
| 2026-04-15 15:21 | 61.18920 | 12.34942 | 29966 ft | 412 kts | 208° |
| 2026-04-15 15:21 | 61.16361 | 12.32317 | 29402 ft | 409 kts | 208° |
| 2026-04-15 15:22 | 61.13819 | 12.29721 | 28850 ft | 406 kts | 208° |
| 2026-04-15 15:22 | 61.11295 | 12.27157 | 28323 ft | 403 kts | 207° |
| 2026-04-15 15:22 | 61.08784 | 12.24619 | 27790 ft | 401 kts | 207° |
| 2026-04-15 15:22 | 61.06284 | 12.22098 | 27289 ft | 399 kts | 208° |
| 2026-04-15 15:23 | 61.03798 | 12.19587 | 26790 ft | 397 kts | 208° |
| 2026-04-15 15:23 | 61.01321 | 12.17085 | 26316 ft | 396 kts | 207° |
| 2026-04-15 15:23 | 60.98856 | 12.14592 | 25869 ft | 394 kts | 207° |
| 2026-04-15 15:23 | 60.96404 | 12.12119 | 25460 ft | 391 kts | 208° |
| 2026-04-15 15:24 | 60.93962 | 12.09663 | 25027 ft | 390 kts | 208° |
| 2026-04-15 15:24 | 60.91525 | 12.07215 | 24590 ft | 390 kts | 207° |
| 2026-04-15 15:24 | 60.89093 | 12.04782 | 24182 ft | 388 kts | 207° |
| 2026-04-15 15:24 | 60.87487 | 12.03182 | 23910 ft | 387 kts | 207° |
| 2026-04-15 15:25 | 60.85077 | 12.00788 | 23438 ft | 385 kts | 207° |
| 2026-04-15 15:25 | 60.82675 | 11.98400 | 22922 ft | 383 kts | 207° |
| 2026-04-15 15:25 | 60.80277 | 11.96016 | 22400 ft | 382 kts | 207° |
| 2026-04-15 15:25 | 60.77899 | 11.93654 | 21929 ft | 379 kts | 207° |
| 2026-04-15 15:26 | 60.75534 | 11.91310 | 21464 ft | 377 kts | 207° |
| 2026-04-15 15:26 | 60.73180 | 11.88984 | 20971 ft | 374 kts | 207° |
| 2026-04-15 15:26 | 60.70840 | 11.86673 | 20493 ft | 373 kts | 207° |
| 2026-04-15 15:26 | 60.68513 | 11.84373 | 20050 ft | 370 kts | 207° |
| 2026-04-15 15:27 | 60.66202 | 11.82093 | 19621 ft | 367 kts | 207° |
| 2026-04-15 15:27 | 60.63908 | 11.79834 | 19162 ft | 365 kts | 207° |
| 2026-04-15 15:27 | 60.61624 | 11.77586 | 18715 ft | 364 kts | 207° |
| 2026-04-15 15:27 | 60.59352 | 11.75355 | 18249 ft | 362 kts | 207° |
| 2026-04-15 15:28 | 60.57094 | 11.73143 | 17795 ft | 358 kts | 207° |
| 2026-04-15 15:28 | 60.54859 | 11.70964 | 17387 ft | 354 kts | 207° |
| 2026-04-15 15:28 | 60.52644 | 11.68810 | 16918 ft | 352 kts | 206° |
| 2026-04-15 15:28 | 60.50440 | 11.66671 | 16409 ft | 351 kts | 206° |
| 2026-04-15 15:29 | 60.48277 | 11.64575 | 16034 ft | 347 kts | 207° |
| 2026-04-15 15:29 | 60.46087 | 11.62448 | 15636 ft | 342 kts | 206° |
| 2026-04-15 15:29 | 60.43951 | 11.60371 | 15252 ft | 338 kts | 206° |
| 2026-04-15 15:29 | 60.41837 | 11.58317 | 14856 ft | 335 kts | 206° |
| 2026-04-15 15:30 | 60.39772 | 11.56319 | 14475 ft | 332 kts | 206° |
| 2026-04-15 15:30 | 60.37698 | 11.54318 | 14099 ft | 328 kts | 205° |
| 2026-04-15 15:30 | 60.35648 | 11.52343 | 13678 ft | 325 kts | 205° |
| 2026-04-15 15:30 | 60.33615 | 11.50386 | 13244 ft | 322 kts | 204° |
| 2026-04-15 15:31 | 60.31601 | 11.48447 | 12824 ft | 319 kts | 204° |
| 2026-04-15 15:31 | 60.29604 | 11.46523 | 12414 ft | 316 kts | 203° |
| 2026-04-15 15:31 | 60.27626 | 11.44620 | 12037 ft | 314 kts | 204° |
| 2026-04-15 15:31 | 60.25666 | 11.42747 | 11654 ft | 311 kts | 204° |
| 2026-04-15 15:32 | 60.23714 | 11.40883 | 11281 ft | 309 kts | 204° |
| 2026-04-15 15:32 | 60.21771 | 11.39028 | 11034 ft | 310 kts | 203° |
| 2026-04-15 15:32 | 60.19826 | 11.37177 | 10786 ft | 309 kts | 203° |
| 2026-04-15 15:32 | 60.17892 | 11.35335 | 10531 ft | 307 kts | 203° |
| 2026-04-15 15:33 | 60.15969 | 11.33500 | 10287 ft | 305 kts | 202° |
| 2026-04-15 15:33 | 60.14056 | 11.31674 | 10028 ft | 302 kts | 202° |
| 2026-04-15 15:33 | 60.12191 | 11.29898 | 9870 ft | 291 kts | 202° |
| 2026-04-15 15:33 | 60.10389 | 11.28184 | 9705 ft | 282 kts | 202° |
| 2026-04-15 15:34 | 60.08628 | 11.26518 | 9411 ft | 279 kts | 202° |
| 2026-04-15 15:34 | 60.06879 | 11.24870 | 9077 ft | 277 kts | 202° |
| 2026-04-15 15:34 | 60.05137 | 11.23231 | 8718 ft | 276 kts | 202° |
| 2026-04-15 15:34 | 60.03403 | 11.21603 | 8372 ft | 275 kts | 202° |
| 2026-04-15 15:35 | 60.01684 | 11.19989 | 8129 ft | 270 kts | 202° |
| 2026-04-15 15:35 | 60.00013 | 11.18418 | 7998 ft | 261 kts | 202° |
| 2026-04-15 15:35 | 59.98394 | 11.16893 | 7873 ft | 253 kts | 203° |
| 2026-04-15 15:35 | 59.96832 | 11.15406 | 7741 ft | 245 kts | 206° |
| 2026-04-15 15:36 | 59.95560 | 11.13259 | 7614 ft | 239 kts | 233° |
| 2026-04-15 15:36 | 59.94918 | 11.10270 | 7460 ft | 234 kts | 260° |
| 2026-04-15 15:36 | 59.95000 | 11.07145 | 7252 ft | 225 kts | 287° |
| 2026-04-15 15:36 | 59.95705 | 11.04510 | 7096 ft | 208 kts | 311° |
| 2026-04-15 15:37 | 59.96665 | 11.02393 | 6849 ft | 200 kts | 313° |
| 2026-04-15 15:37 | 59.97575 | 11.00389 | 6610 ft | 195 kts | 313° |
| 2026-04-15 15:37 | 59.98561 | 10.98562 | 6236 ft | 192 kts | 329° |
| 2026-04-15 15:37 | 59.99772 | 10.97535 | 5890 ft | 188 kts | 351° |
| 2026-04-15 15:38 | 60.01054 | 10.97444 | 5515 ft | 184 kts | 12° |
| 2026-04-15 15:38 | 60.02286 | 10.98096 | 5135 ft | 184 kts | 19° |
| 2026-04-15 15:38 | 60.03512 | 10.98790 | 4776 ft | 181 kts | 19° |
| 2026-04-15 15:38 | 60.04724 | 10.99480 | 4298 ft | 181 kts | 19° |
| 2026-04-15 15:39 | 60.05933 | 11.00169 | 3818 ft | 180 kts | 19° |
| 2026-04-15 15:39 | 60.07136 | 11.00856 | 3339 ft | 179 kts | 18° |
| 2026-04-15 15:39 | 60.08326 | 11.01536 | 2934 ft | 174 kts | 19° |
| 2026-04-15 15:39 | 60.09447 | 11.02175 | 2659 ft | 158 kts | 19° |
| 2026-04-15 15:40 | 60.10468 | 11.02759 | 2413 ft | 148 kts | 19° |
| 2026-04-15 15:40 | 60.11444 | 11.03318 | 2175 ft | 145 kts | 20° |
| 2026-04-15 15:40 | 60.12406 | 11.03866 | 1944 ft | 143 kts | 18° |
| 2026-04-15 15:40 | 60.13358 | 11.04420 | 1768 ft | 143 kts | 21° |
| 2026-04-15 15:41 | 60.14316 | 11.04968 | 1579 ft | 143 kts | 20° |
| 2026-04-15 15:41 | 60.15271 | 11.05517 | 1372 ft | 142 kts | 19° |
| 2026-04-15 15:41 | 60.16214 | 11.06035 | 1178 ft | 139 kts | 19° |
| 2026-04-15 15:41 | 60.17141 | 11.06575 | 989 ft | 137 kts | 16° |
| 2026-04-15 15:42 | 60.18042 | 11.07095 | 811 ft | 135 kts | 17° |
| 2026-04-15 15:42 | 60.18937 | 11.07624 | 674 ft | 127 kts | 15° |
| 2026-04-15 15:42 | 60.19652 | 11.08042 | 671 ft | 83 kts | 15° |
| 2026-04-15 15:42 | 60.20063 | 11.08281 | 676 ft | 40 kts | 19° |
| 2026-04-15 15:43 | 60.20232 | 11.08484 | 677 ft | 16 kts | 48° |
| 2026-04-15 15:43 | 60.20242 | 11.08675 | 678 ft | 15 kts | 104° |
| 2026-04-15 15:43 | 60.20214 | 11.08857 | 680 ft | 10 kts | 115° |
| 2026-04-15 15:43 | 60.20151 | 11.08892 | 681 ft | 12 kts | 193° |
| 2026-04-15 15:44 | 60.20062 | 11.08838 | 678 ft | 15 kts | 197° |
| 2026-04-15 15:44 | 60.19948 | 11.08772 | 677 ft | 19 kts | 195° |
| 2026-04-15 15:44 | 60.19808 | 11.08692 | 679 ft | 23 kts | 197° |
| 2026-04-15 15:44 | 60.19648 | 11.08599 | 678 ft | 21 kts | 196° |
| 2026-04-15 15:45 | 60.19545 | 11.08567 | 678 ft | 14 kts | 155° |
| 2026-04-15 15:45 | 60.19504 | 11.08760 | 679 ft | 15 kts | 104° |
| 2026-04-15 15:45 | 60.19466 | 11.08917 | 683 ft | 11 kts | 140° |
| 2026-04-15 15:45 | 60.19411 | 11.08919 | 683 ft | 3 kts | 197° |
| 2026-04-15 15:46 | 60.19393 | 11.08908 | 682 ft | 1 kts | 196° |
| 2026-04-15 15:46 | 60.19385 | 11.08903 | 681 ft | 0 kts | 196° |
| 2026-04-15 15:50 | 60.19384 | 11.08903 | 681 ft | 0 kts | 196° |